createdAt,value
2019-05-03T00:01:38.123Z,7.88
2019-05-03T00:03:38.133Z,7.81
2019-05-03T00:05:38.095Z,7.81
2019-05-03T00:07:38.121Z,7.81
2019-05-03T00:09:38.112Z,7.81
2019-05-03T00:10:55.080Z,7.75
2019-05-03T00:11:39.023Z,7.75
2019-05-03T00:13:38.150Z,7.75
2019-05-03T00:15:38.071Z,7.75
2019-05-03T00:17:38.116Z,7.75
2019-05-03T00:19:38.142Z,7.75
2019-05-03T00:21:38.069Z,7.75
2019-05-03T00:23:38.076Z,7.75
2019-05-03T00:25:38.221Z,7.81
2019-05-03T00:25:55.055Z,7.81
2019-05-03T00:27:38.184Z,7.81
2019-05-03T00:29:38.133Z,7.81
2019-05-03T00:31:38.086Z,7.81
2019-05-03T00:33:38.125Z,7.81
2019-05-03T00:35:38.143Z,7.88
2019-05-03T00:37:38.125Z,7.88
2019-05-03T00:39:38.137Z,7.81
2019-05-03T00:40:55.094Z,7.88
2019-05-03T00:41:38.092Z,7.88
2019-05-03T00:43:38.075Z,7.88
2019-05-03T00:45:38.165Z,7.88
2019-05-03T00:47:39.016Z,7.88
2019-05-03T00:49:38.113Z,7.88
2019-05-03T00:51:38.141Z,7.88
2019-05-03T00:53:38.128Z,7.88
2019-05-03T00:55:38.073Z,7.88
2019-05-03T00:55:55.089Z,7.81
2019-05-03T00:57:38.142Z,7.81
2019-05-03T00:59:39.022Z,7.88
2019-05-03T01:01:38.143Z,7.88
2019-05-03T01:03:38.996Z,7.88
2019-05-03T01:05:38.160Z,7.88
2019-05-03T01:07:38.126Z,7.88
2019-05-03T01:09:39.004Z,7.81
2019-05-03T01:10:55.115Z,7.81
2019-05-03T01:11:38.210Z,7.88
2019-05-03T01:13:38.997Z,7.81
2019-05-03T01:15:38.131Z,7.88
2019-05-03T01:17:38.184Z,7.88
2019-05-03T01:19:38.074Z,7.88
2019-05-03T01:21:38.144Z,7.88
2019-05-03T01:23:38.153Z,7.88
2019-05-03T01:25:38.079Z,7.88
2019-05-03T01:25:55.003Z,7.88
2019-05-03T01:27:38.084Z,7.88
2019-05-03T01:29:38.151Z,7.88
2019-05-03T01:31:38.101Z,7.88
2019-05-03T01:33:38.952Z,7.88
2019-05-03T01:35:39.868Z,7.81
2019-05-03T01:37:38.923Z,7.81
2019-05-03T01:39:38.142Z,7.81
2019-05-03T01:40:55.037Z,7.81
2019-05-03T01:41:38.953Z,7.75
2019-05-03T01:43:38.973Z,7.75
2019-05-03T01:45:38.135Z,7.69
2019-05-03T01:47:38.136Z,7.75
2019-05-03T01:49:38.122Z,7.69
2019-05-03T01:51:39.143Z,7.69
2019-05-03T01:53:38.077Z,7.69
2019-05-03T01:55:44.363Z,7.69
2019-05-03T01:55:55.069Z,7.69
2019-05-03T01:57:38.077Z,7.69
2019-05-03T01:59:38.220Z,7.69
2019-05-03T02:01:38.129Z,7.75
2019-05-03T02:03:39.132Z,7.75
2019-05-03T02:05:38.132Z,7.81
2019-05-03T02:07:38.127Z,7.81
2019-05-03T02:09:38.062Z,7.81
2019-05-03T02:10:55.093Z,7.81
2019-05-03T02:11:38.125Z,7.81
2019-05-03T02:13:38.119Z,7.81
2019-05-03T02:15:38.130Z,7.81
2019-05-03T02:17:38.131Z,7.81
2019-05-03T02:19:38.139Z,7.81
2019-05-03T02:21:38.076Z,7.75
2019-05-03T02:23:38.106Z,7.75
2019-05-03T02:25:38.121Z,7.75
2019-05-03T02:25:56.549Z,7.75
2019-05-03T02:27:38.097Z,7.75
2019-05-03T02:29:38.143Z,7.75
2019-05-03T02:31:38.088Z,7.75
2019-05-03T02:33:38.153Z,7.69
2019-05-03T02:35:38.175Z,7.69
2019-05-03T02:37:38.150Z,7.69
2019-05-03T02:39:38.072Z,7.75
2019-05-03T02:40:55.151Z,7.75
2019-05-03T02:41:38.033Z,7.75
2019-05-03T02:43:38.131Z,7.75
2019-05-03T02:45:38.077Z,7.69
2019-05-03T02:47:38.131Z,7.69
2019-05-03T02:49:38.136Z,7.69
2019-05-03T02:51:39.037Z,7.69
2019-05-03T02:53:38.067Z,7.69
2019-05-03T02:55:38.123Z,7.69
2019-05-03T02:55:56.177Z,7.69
2019-05-03T02:57:38.980Z,7.69
2019-05-03T02:59:38.096Z,7.69
2019-05-03T03:01:38.082Z,7.63
2019-05-03T03:03:38.095Z,7.63
2019-05-03T03:05:38.086Z,7.56
2019-05-03T03:07:38.149Z,7.56
2019-05-03T03:09:38.069Z,7.56
2019-05-03T03:10:55.655Z,7.56
2019-05-03T03:11:38.157Z,7.56
2019-05-03T03:13:38.174Z,7.56
2019-05-03T03:15:38.961Z,7.5
2019-05-03T03:17:38.088Z,7.44
2019-05-03T03:19:38.145Z,7.5
2019-05-03T03:21:38.111Z,7.44
2019-05-03T03:23:38.131Z,7.5
2019-05-03T03:25:38.124Z,7.44
2019-05-03T03:25:55.820Z,7.44
2019-05-03T03:27:38.137Z,7.44
2019-05-03T03:29:38.113Z,7.44
2019-05-03T03:31:38.269Z,7.44
2019-05-03T03:33:40.359Z,7.44
2019-05-03T03:35:38.787Z,7.44
2019-05-03T03:37:38.136Z,7.44
2019-05-03T03:39:38.079Z,7.44
2019-05-03T03:40:58.169Z,7.5
2019-05-03T03:41:38.152Z,7.5
2019-05-03T03:43:38.155Z,7.44
2019-05-03T03:45:38.124Z,7.44
2019-05-03T03:47:38.132Z,7.44
2019-05-03T03:49:38.110Z,7.38
2019-05-03T03:51:38.294Z,7.38
2019-05-03T03:53:38.087Z,7.38
2019-05-03T03:55:39.009Z,7.38
2019-05-03T03:55:56.328Z,7.38
2019-05-03T03:57:38.099Z,7.38
2019-05-03T03:59:38.204Z,7.38
2019-05-03T04:01:38.121Z,7.31
2019-05-03T04:03:38.074Z,7.31
2019-05-03T04:05:38.154Z,7.31
2019-05-03T04:07:38.088Z,7.31
2019-05-03T04:09:38.076Z,7.31
2019-05-03T04:10:55.816Z,7.31
2019-05-03T04:11:38.004Z,7.25
2019-05-03T04:13:38.073Z,7.19
2019-05-03T04:15:38.089Z,7.19
2019-05-03T04:17:38.128Z,7.25
2019-05-03T04:19:38.081Z,7.25
2019-05-03T04:21:38.146Z,7.25
2019-05-03T04:23:38.142Z,7.19
2019-05-03T04:25:38.070Z,7.19
2019-05-03T04:25:56.530Z,7.19
2019-05-03T04:27:38.134Z,7.19
2019-05-03T04:29:38.074Z,7.13
2019-05-03T04:31:38.087Z,7.19
2019-05-03T04:33:38.088Z,7.19
2019-05-03T04:35:38.129Z,7.19
2019-05-03T04:37:38.138Z,7.13
2019-05-03T04:39:38.136Z,7.19
2019-05-03T04:40:56.101Z,7.19
2019-05-03T04:41:38.196Z,7.19
2019-05-03T04:43:38.154Z,7.25
2019-05-03T04:45:38.124Z,7.25
2019-05-03T04:47:38.134Z,7.19
2019-05-03T04:49:38.144Z,7.25
2019-05-03T04:51:38.085Z,7.19
2019-05-03T04:53:38.155Z,7.25
2019-05-03T04:55:38.155Z,7.25
2019-05-03T04:55:55.869Z,7.25
2019-05-03T04:57:44.357Z,7.25
2019-05-03T04:59:38.068Z,7.25
2019-05-03T05:01:38.095Z,7.19
2019-05-03T05:03:38.027Z,7.19
2019-05-03T05:05:38.114Z,7.25
2019-05-03T05:07:38.333Z,7.25
2019-05-03T05:09:38.122Z,7.38
2019-05-03T05:10:55.896Z,7.31
2019-05-03T05:11:38.111Z,7.31
2019-05-03T05:13:38.101Z,7.38
2019-05-03T05:15:38.065Z,7.38
2019-05-03T05:17:38.134Z,7.38
2019-05-03T05:19:38.063Z,7.44
2019-05-03T05:21:38.119Z,7.44
2019-05-03T05:23:38.167Z,7.5
2019-05-03T05:25:38.059Z,7.5
2019-05-03T05:25:55.098Z,7.44
2019-05-03T05:27:47.918Z,7.5
2019-05-03T05:29:38.109Z,7.44
2019-05-03T05:31:38.233Z,7.44
2019-05-03T05:33:38.091Z,7.44
2019-05-03T05:35:38.152Z,7.44
2019-05-03T05:37:38.108Z,7.44
2019-05-03T05:39:38.109Z,7.44
2019-05-03T05:40:55.533Z,7.5
2019-05-03T05:41:38.053Z,7.44
2019-05-03T05:43:38.074Z,7.38
2019-05-03T05:45:38.079Z,7.38
2019-05-03T05:47:38.101Z,7.31
2019-05-03T05:49:38.105Z,7.31
2019-05-03T05:51:38.071Z,7.38
2019-05-03T05:53:38.055Z,7.38
2019-05-03T05:55:38.090Z,7.38
2019-05-03T05:55:55.062Z,7.38
2019-05-03T05:57:38.088Z,7.38
2019-05-03T05:59:38.102Z,7.38
2019-05-03T06:01:38.091Z,7.38
2019-05-03T06:03:38.102Z,7.31
2019-05-03T06:05:38.107Z,7.31
2019-05-03T06:07:38.067Z,7.44
2019-05-03T06:09:38.098Z,7.5
2019-05-03T06:10:55.406Z,7.5
2019-05-03T06:11:38.116Z,7.44
2019-05-03T06:13:38.162Z,7.5
2019-05-03T06:15:39.001Z,7.56
2019-05-03T06:17:38.117Z,7.63
2019-05-03T06:19:38.105Z,7.69
2019-05-03T06:21:38.055Z,7.69
2019-05-03T06:23:38.059Z,7.63
2019-05-03T06:25:38.158Z,7.75
2019-05-03T06:25:55.010Z,7.75
2019-05-03T06:27:38.051Z,7.88
2019-05-03T06:29:38.114Z,7.88
2019-05-03T06:31:38.063Z,7.88
2019-05-03T06:33:38.126Z,7.75
2019-05-03T06:35:38.134Z,7.81
2019-05-03T06:37:38.152Z,7.94
2019-05-03T06:39:38.096Z,7.94
2019-05-03T06:40:55.012Z,8
2019-05-03T06:41:38.097Z,7.94
2019-05-03T06:43:39.499Z,7.94
2019-05-03T06:45:41.030Z,8.06
2019-05-03T06:47:40.155Z,8.13
2019-05-03T06:49:39.174Z,8.19
2019-05-03T06:51:39.910Z,8.06
2019-05-03T06:53:41.731Z,8
2019-05-03T06:55:39.901Z,8.06
2019-05-03T06:55:55.454Z,8.13
2019-05-03T06:57:39.984Z,8.13
2019-05-03T06:59:38.149Z,8.13
2019-05-03T07:01:38.054Z,8.06
2019-05-03T07:03:38.926Z,8.13
2019-05-03T07:05:38.060Z,8.06
2019-05-03T07:07:38.135Z,8.06
2019-05-03T07:09:38.146Z,8.13
2019-05-03T07:10:55.081Z,8.06
2019-05-03T07:11:39.122Z,8
2019-05-03T07:13:38.999Z,7.88
2019-05-03T07:15:38.096Z,8
2019-05-03T07:17:38.104Z,8
2019-05-03T07:19:38.131Z,7.94
2019-05-03T07:21:38.059Z,8
2019-05-03T07:23:38.181Z,8.06
2019-05-03T07:25:38.128Z,8
2019-05-03T07:25:55.207Z,8.06
2019-05-03T07:27:38.067Z,7.94
2019-05-03T07:29:38.077Z,7.88
2019-05-03T07:31:38.048Z,7.94
2019-05-03T07:33:38.066Z,8.06
2019-05-03T07:35:38.061Z,8
2019-05-03T07:37:38.066Z,8.13
2019-05-03T07:39:38.126Z,8.06
2019-05-03T07:40:55.207Z,8.19
2019-05-03T07:41:38.085Z,8.13
2019-05-03T07:43:38.109Z,8.19
2019-05-03T07:45:38.122Z,8.31
2019-05-03T07:47:38.117Z,8.38
2019-05-03T07:49:38.087Z,8.44
2019-05-03T07:51:38.082Z,8.44
2019-05-03T07:53:38.087Z,8.69
2019-05-03T07:55:38.089Z,8.81
2019-05-03T07:55:55.041Z,8.81
2019-05-03T07:57:38.124Z,8.69
2019-05-03T07:59:38.081Z,8.81
2019-05-03T08:01:38.078Z,8.69
2019-05-03T08:03:38.976Z,8.75
2019-05-03T08:05:38.105Z,8.63
2019-05-03T08:07:38.137Z,8.75
2019-05-03T08:09:39.141Z,8.75
2019-05-03T08:10:55.156Z,8.69
2019-05-03T08:11:38.183Z,8.69
2019-05-03T08:13:38.099Z,8.75
2019-05-03T08:15:38.096Z,8.81
2019-05-03T08:17:38.348Z,8.94
2019-05-03T08:19:38.085Z,8.75
2019-05-03T08:21:38.933Z,8.88
2019-05-03T08:23:38.110Z,8.94
2019-05-03T08:25:38.127Z,8.88
2019-05-03T08:25:55.675Z,8.94
2019-05-03T08:27:38.114Z,9.06
2019-05-03T08:29:38.099Z,9.19
2019-05-03T08:31:38.171Z,9.31
2019-05-03T08:33:38.121Z,9.19
2019-05-03T08:35:38.111Z,9.38
2019-05-03T08:37:38.224Z,9.44
2019-05-03T08:39:38.142Z,9.31
2019-05-03T08:40:55.089Z,9.38
2019-05-03T08:41:38.125Z,9.38
2019-05-03T08:43:38.201Z,9.38
2019-05-03T08:45:38.237Z,9.31
2019-05-03T08:47:38.235Z,9.5
2019-05-03T08:49:38.179Z,9.44
2019-05-03T08:51:38.123Z,9.13
2019-05-03T08:53:38.118Z,9.38
2019-05-03T08:55:38.984Z,9.44
2019-05-03T08:55:55.322Z,9.44
2019-05-03T08:57:38.135Z,9.38
2019-05-03T08:59:38.131Z,9.31
2019-05-03T09:01:39.374Z,9.38
2019-05-03T09:03:38.397Z,9.31
2019-05-03T09:05:38.309Z,9.44
2019-05-03T09:07:38.151Z,9.5
2019-05-03T09:09:38.167Z,9.69
2019-05-03T09:10:55.050Z,9.69
2019-05-03T09:11:38.155Z,9.56
2019-05-03T09:13:38.185Z,10
2019-05-03T09:15:38.144Z,10.06
2019-05-03T09:17:38.143Z,9.88
2019-05-03T09:19:38.178Z,9.88
2019-05-03T09:21:38.226Z,10.19
2019-05-03T09:23:38.178Z,10.06
2019-05-03T09:25:38.171Z,9.94
2019-05-03T09:25:55.038Z,9.81
2019-05-03T09:27:38.176Z,9.81
2019-05-03T09:29:43.051Z,9.94
2019-05-03T09:31:38.159Z,9.88
2019-05-03T09:33:38.177Z,9.88
2019-05-03T09:35:38.197Z,9.69
2019-05-03T09:37:38.173Z,9.88
2019-05-03T09:39:38.176Z,9.88
2019-05-03T09:40:55.074Z,10.06
2019-05-03T09:41:39.094Z,10.19
2019-05-03T09:43:38.202Z,10.19
2019-05-03T09:45:38.173Z,10.5
2019-05-03T09:47:38.153Z,10.5
2019-05-03T09:49:38.203Z,10.19
2019-05-03T09:51:38.232Z,10
2019-05-03T09:53:38.961Z,10.19
2019-05-03T09:55:38.181Z,10.25
2019-05-03T09:55:55.591Z,10.31
2019-05-03T09:57:38.168Z,10.31
2019-05-03T09:59:38.184Z,10.19
2019-05-03T10:01:38.177Z,10.56
2019-05-03T10:03:38.191Z,10.69
2019-05-03T10:05:38.197Z,11
2019-05-03T10:07:38.238Z,10.94
2019-05-03T10:09:38.187Z,10.81
2019-05-03T10:10:55.048Z,10.88
2019-05-03T10:11:38.171Z,10.75
2019-05-03T10:13:41.389Z,10.81
2019-05-03T10:15:38.140Z,10.88
2019-05-03T10:17:38.194Z,10.69
2019-05-03T10:19:40.370Z,10.56
2019-05-03T10:21:38.149Z,10.69
2019-05-03T10:23:38.986Z,10.94
2019-05-03T10:25:40.267Z,10.94
2019-05-03T10:25:55.228Z,10.94
2019-05-03T10:27:38.187Z,10.81
2019-05-03T10:29:38.178Z,10.88
2019-05-03T10:31:38.181Z,10.75
2019-05-03T10:33:38.174Z,10.75
2019-05-03T10:35:38.179Z,10.69
2019-05-03T10:37:38.179Z,10.75
2019-05-03T10:39:38.237Z,10.44
2019-05-03T10:40:55.120Z,10.63
2019-05-03T10:41:38.178Z,10.44
2019-05-03T10:43:38.191Z,10.69
2019-05-03T10:45:38.972Z,11
2019-05-03T10:47:38.195Z,11.13
2019-05-03T10:49:38.179Z,11.19
2019-05-03T10:51:38.215Z,11.13
2019-05-03T10:53:38.191Z,11.19
2019-05-03T10:55:38.184Z,10.75
2019-05-03T10:55:55.637Z,10.81
2019-05-03T10:57:38.232Z,10.88
2019-05-03T10:59:38.216Z,10.69
2019-05-03T11:01:38.186Z,10.63
2019-05-03T11:03:38.194Z,10.88
2019-05-03T11:05:38.201Z,10.81
2019-05-03T11:07:38.170Z,11.06
2019-05-03T11:09:48.385Z,11.31
2019-05-03T11:10:55.090Z,11.69
2019-05-03T11:11:38.220Z,11.88
2019-05-03T11:13:38.228Z,11.94
2019-05-03T11:15:38.224Z,11.69
2019-05-03T11:17:38.927Z,11.5
2019-05-03T11:19:38.127Z,11.19
2019-05-03T11:21:38.288Z,11.13
2019-05-03T11:23:38.197Z,10.81
2019-05-03T11:25:38.229Z,10.69
2019-05-03T11:25:55.493Z,10.75
2019-05-03T11:27:38.262Z,10.75
2019-05-03T11:29:38.263Z,10.81
2019-05-03T11:31:38.210Z,10.88
2019-05-03T11:33:38.238Z,11.38
2019-05-03T11:35:38.239Z,11.63
2019-05-03T11:37:38.246Z,11.56
2019-05-03T11:39:39.198Z,11.63
2019-05-03T11:40:55.945Z,11.44
2019-05-03T11:41:38.226Z,11.56
2019-05-03T11:43:38.280Z,11.81
2019-05-03T11:45:38.254Z,11.81
2019-05-03T11:47:38.258Z,11.94
2019-05-03T11:49:38.223Z,12.06
2019-05-03T11:51:38.301Z,11.56
2019-05-03T11:53:38.270Z,11.69
2019-05-03T11:55:38.314Z,11.44
2019-05-03T11:55:55.268Z,11.5
2019-05-03T11:57:38.283Z,11.25
2019-05-03T11:59:38.986Z,11.25
2019-05-03T12:01:38.304Z,11.31
2019-05-03T12:03:38.288Z,11.31
2019-05-03T12:05:38.289Z,11.63
2019-05-03T12:07:39.728Z,11.88
2019-05-03T12:09:38.253Z,11.94
2019-05-03T12:10:58.473Z,11.75
2019-05-03T12:11:38.268Z,11.5
2019-05-03T12:13:38.274Z,11.5
2019-05-03T12:15:38.313Z,11.69
2019-05-03T12:17:49.928Z,12.06
2019-05-03T12:19:39.355Z,12.06
2019-05-03T12:21:38.998Z,12.13
2019-05-03T12:23:38.840Z,11.94
2019-05-03T12:25:38.644Z,11.88
2019-05-03T12:25:55.449Z,11.94
2019-05-03T12:27:38.258Z,12.13
2019-05-03T12:29:38.342Z,12.19
2019-05-03T12:31:40.475Z,12.25
2019-05-03T12:33:38.299Z,11.81
2019-05-03T12:35:38.192Z,12.38
2019-05-03T12:37:38.289Z,12.25
2019-05-03T12:39:38.268Z,12.19
2019-05-03T12:40:55.108Z,12.06
2019-05-03T12:41:38.242Z,12.19
2019-05-03T12:43:38.284Z,12.19
2019-05-03T12:45:38.298Z,11.81
2019-05-03T12:47:38.205Z,11.94
2019-05-03T12:49:38.294Z,12
2019-05-03T12:51:38.204Z,12
2019-05-03T12:53:38.206Z,12.31
2019-05-03T12:55:38.290Z,12.56
2019-05-03T12:55:55.033Z,12.56
2019-05-03T12:57:38.292Z,12.81
2019-05-03T12:59:38.211Z,12.81
2019-05-03T13:01:41.486Z,13
2019-05-03T13:03:38.227Z,13
2019-05-03T13:05:38.208Z,12.88
2019-05-03T13:07:38.211Z,13.31
2019-05-03T13:09:38.211Z,13.06
2019-05-03T13:10:55.678Z,12.88
2019-05-03T13:11:51.051Z,12.63
2019-05-03T13:13:38.219Z,12.63
2019-05-03T13:15:38.218Z,12.69
2019-05-03T13:17:38.230Z,12.88
2019-05-03T13:19:38.223Z,12.88
2019-05-03T13:21:38.229Z,12.69
2019-05-03T13:23:38.307Z,12.5
2019-05-03T13:25:38.345Z,12.44
2019-05-03T13:25:55.018Z,12.5
2019-05-03T13:27:38.317Z,12.13
2019-05-03T13:29:38.233Z,12
2019-05-03T13:31:38.298Z,12.06
2019-05-03T13:33:38.242Z,11.94
2019-05-03T13:35:38.357Z,11.81
2019-05-03T13:37:38.245Z,11.69
2019-05-03T13:39:38.235Z,11.88
2019-05-03T13:40:55.917Z,11.81
2019-05-03T13:41:38.280Z,11.69
2019-05-03T13:43:38.348Z,11.75
2019-05-03T13:45:38.256Z,11.5
2019-05-03T13:47:38.319Z,11.69
2019-05-03T13:49:38.358Z,11.75
2019-05-03T13:51:39.138Z,11.81
2019-05-03T13:53:38.355Z,11.94
2019-05-03T13:55:39.001Z,12.13
2019-05-03T13:55:55.291Z,12.06
2019-05-03T13:57:39.000Z,12
2019-05-03T13:59:38.392Z,12
2019-05-03T14:01:38.418Z,11.88
2019-05-03T14:03:38.340Z,12
2019-05-03T14:05:38.312Z,11.88
2019-05-03T14:07:38.370Z,11.81
2019-05-03T14:09:38.371Z,11.88
2019-05-03T14:10:55.642Z,11.81
2019-05-03T14:11:38.270Z,11.88
2019-05-03T14:13:38.399Z,12
2019-05-03T14:15:38.276Z,12
2019-05-03T14:17:38.268Z,12.06
2019-05-03T14:19:38.272Z,11.81
2019-05-03T14:21:39.214Z,11.56
2019-05-03T14:23:38.292Z,11.56
2019-05-03T14:25:38.278Z,11.63
2019-05-03T14:25:55.276Z,11.69
2019-05-03T14:27:38.280Z,11.75
2019-05-03T14:29:38.377Z,11.69
2019-05-03T14:31:38.288Z,11.5
2019-05-03T14:33:38.347Z,11.44
2019-05-03T14:35:38.390Z,11.44
2019-05-03T14:37:38.365Z,11.38
2019-05-03T14:39:38.293Z,11.31
2019-05-03T14:40:55.249Z,11.31
2019-05-03T14:41:38.311Z,11.38
2019-05-03T14:43:38.292Z,11.25
2019-05-03T14:45:39.020Z,11.13
2019-05-03T14:47:38.296Z,11.06
2019-05-03T14:49:38.296Z,11.06
2019-05-03T14:51:38.345Z,11
2019-05-03T14:53:38.293Z,10.94
2019-05-03T14:55:38.389Z,10.94
2019-05-03T14:55:55.060Z,10.94
2019-05-03T14:57:38.452Z,10.88
2019-05-03T14:59:38.313Z,10.75
2019-05-03T15:01:38.300Z,10.69
2019-05-03T15:03:38.301Z,10.69
2019-05-03T15:05:38.316Z,10.75
2019-05-03T15:07:38.318Z,10.75
2019-05-03T15:09:38.305Z,10.75
2019-05-03T15:10:55.073Z,10.69
2019-05-03T15:11:38.321Z,10.69
2019-05-03T15:13:38.323Z,10.75
2019-05-03T15:15:38.315Z,10.69
2019-05-03T15:17:38.314Z,10.63
2019-05-03T15:19:38.306Z,10.44
2019-05-03T15:21:38.316Z,10.38
2019-05-03T15:23:38.319Z,10.31
2019-05-03T15:25:38.320Z,10.38
2019-05-03T15:25:55.027Z,10.38
2019-05-03T15:27:39.031Z,10.44
2019-05-03T15:29:38.330Z,10.38
2019-05-03T15:31:38.307Z,10.13
2019-05-03T15:33:38.326Z,9.88
2019-05-03T15:35:38.324Z,9.56
2019-05-03T15:37:38.194Z,9.5
2019-05-03T15:39:38.204Z,9.06
2019-05-03T15:40:55.088Z,9.06
2019-05-03T15:41:38.194Z,9.13
2019-05-03T15:43:38.328Z,9.25
2019-05-03T15:45:38.209Z,9.19
2019-05-03T15:47:38.207Z,9.19
2019-05-03T15:49:38.208Z,9
2019-05-03T15:51:38.344Z,9
2019-05-03T15:53:38.348Z,8.81
2019-05-03T15:55:38.354Z,8.75
2019-05-03T15:55:55.212Z,8.75
2019-05-03T15:57:38.228Z,8.81
2019-05-03T15:59:38.210Z,8.81
2019-05-03T16:01:38.403Z,8.56
2019-05-03T16:03:38.358Z,8.63
2019-05-03T16:05:38.222Z,8.56
2019-05-03T16:07:38.427Z,8.63
2019-05-03T16:09:38.364Z,8.56
2019-05-03T16:10:55.207Z,8.44
2019-05-03T16:11:39.111Z,8.44
2019-05-03T16:13:38.451Z,8.31
2019-05-03T16:15:38.369Z,8.38
2019-05-03T16:17:38.448Z,8.44
2019-05-03T16:19:38.239Z,8.56
2019-05-03T16:21:38.379Z,8.5
2019-05-03T16:23:38.449Z,8.44
2019-05-03T16:25:38.233Z,8.56
2019-05-03T16:25:55.072Z,8.56
2019-05-03T16:27:38.377Z,8.75
2019-05-03T16:29:38.241Z,8.88
2019-05-03T16:31:38.391Z,8.75
2019-05-03T16:33:38.380Z,8.63
2019-05-03T16:35:38.464Z,8.44
2019-05-03T16:37:38.239Z,8.44
2019-05-03T16:39:38.248Z,8.38
2019-05-03T16:40:55.022Z,8.31
2019-05-03T16:41:39.120Z,8.38
2019-05-03T16:43:38.392Z,8.19
2019-05-03T16:45:38.397Z,8.25
2019-05-03T16:47:38.416Z,8.19
2019-05-03T16:49:38.268Z,8.31
2019-05-03T16:51:38.403Z,8.38
2019-05-03T16:53:38.399Z,8.38
2019-05-03T16:55:38.266Z,8.44
2019-05-03T16:55:55.012Z,8.44
2019-05-03T16:57:38.264Z,8.31
2019-05-03T16:59:38.271Z,8.25
2019-05-03T17:01:38.263Z,8.38
2019-05-03T17:03:41.260Z,8.19
2019-05-03T17:05:38.473Z,8.25
2019-05-03T17:07:38.410Z,8.25
2019-05-03T17:09:38.281Z,8.38
2019-05-03T17:10:56.997Z,8.38
2019-05-03T17:11:38.423Z,8.44
2019-05-03T17:13:38.271Z,8.25
2019-05-03T17:15:38.432Z,8.06
2019-05-03T17:17:38.291Z,8.13
2019-05-03T17:19:38.420Z,8.19
2019-05-03T17:21:38.302Z,8.31
2019-05-03T17:23:38.425Z,8.19
2019-05-03T17:25:38.294Z,8.25
2019-05-03T17:25:55.039Z,8.31
2019-05-03T17:27:38.291Z,8.25
2019-05-03T17:29:38.430Z,8.25
2019-05-03T17:31:38.298Z,8.19
2019-05-03T17:33:38.294Z,8.06
2019-05-03T17:35:38.294Z,8.19
2019-05-03T17:37:38.298Z,8.19
2019-05-03T17:39:38.295Z,8.13
2019-05-03T17:40:55.048Z,8.06
2019-05-03T17:41:38.303Z,8.06
2019-05-03T17:43:38.310Z,8.19
2019-05-03T17:45:38.305Z,8.31
2019-05-03T17:47:38.309Z,8.25
2019-05-03T17:49:38.312Z,8.19
2019-05-03T17:51:38.316Z,8.19
2019-05-03T17:53:38.318Z,8.25
2019-05-03T17:55:38.318Z,8.19
2019-05-03T17:55:55.170Z,8.19
2019-05-03T17:57:38.328Z,8.13
2019-05-03T17:59:38.343Z,8.06
2019-05-03T18:01:38.327Z,8.06
2019-05-03T18:03:38.319Z,8.06
2019-05-03T18:05:38.327Z,8.06
2019-05-03T18:07:38.457Z,8
2019-05-03T18:09:39.874Z,8
2019-05-03T18:11:05.189Z,8
2019-05-03T18:11:38.468Z,8.06
2019-05-03T18:13:38.326Z,8.06
2019-05-03T18:15:38.306Z,8.13
2019-05-03T18:17:38.194Z,8.06
2019-05-03T18:19:38.347Z,8.13
2019-05-03T18:21:38.333Z,8.13
2019-05-03T18:23:38.332Z,8.13
2019-05-03T18:25:38.539Z,8.13
2019-05-03T18:25:55.101Z,8.13
2019-05-03T18:27:38.337Z,8
2019-05-03T18:29:38.350Z,8.13
2019-05-03T18:31:38.344Z,8.13
2019-05-03T18:33:38.205Z,8.06
2019-05-03T18:35:38.206Z,8.13
2019-05-03T18:37:38.212Z,8
2019-05-03T18:39:38.221Z,8.06
2019-05-03T18:40:55.329Z,8.06
2019-05-03T18:41:38.220Z,8
2019-05-03T18:43:38.349Z,7.88
2019-05-03T18:45:38.348Z,8
2019-05-03T18:47:38.350Z,7.94
2019-05-03T18:49:38.220Z,8
2019-05-03T18:51:38.231Z,8
2019-05-03T18:53:38.236Z,8
2019-05-03T18:55:38.984Z,8
2019-05-03T18:55:55.248Z,7.94
2019-05-03T18:57:38.231Z,8
2019-05-03T18:59:38.235Z,8
2019-05-03T19:01:38.372Z,8
2019-05-03T19:03:38.232Z,8
2019-05-03T19:05:39.119Z,8
2019-05-03T19:07:38.806Z,8
2019-05-03T19:09:38.371Z,7.94
2019-05-03T19:10:55.219Z,7.94
2019-05-03T19:11:38.510Z,7.88
2019-05-03T19:13:38.254Z,7.88
2019-05-03T19:15:38.246Z,7.81
2019-05-03T19:17:38.251Z,7.81
2019-05-03T19:19:38.401Z,7.81
2019-05-03T19:21:38.389Z,7.81
2019-05-03T19:23:39.131Z,7.88
2019-05-03T19:25:46.696Z,7.88
2019-05-03T19:25:55.923Z,7.81
2019-05-03T19:27:38.954Z,7.81
2019-05-03T19:29:38.259Z,7.81
2019-05-03T19:31:38.274Z,7.81
2019-05-03T19:33:38.937Z,7.88
2019-05-03T19:35:38.266Z,7.88
2019-05-03T19:37:46.194Z,7.94
2019-05-03T19:39:38.943Z,7.88
2019-05-03T19:40:55.157Z,7.94
2019-05-03T19:41:38.410Z,7.94
2019-05-03T19:43:38.280Z,7.94
2019-05-03T19:45:38.405Z,7.81
2019-05-03T19:47:38.411Z,7.81
2019-05-03T19:49:48.043Z,7.81
2019-05-03T19:51:38.432Z,7.75
2019-05-03T19:53:38.281Z,7.75
2019-05-03T19:55:38.280Z,7.75
2019-05-03T19:55:55.362Z,7.75
2019-05-03T19:57:38.412Z,7.88
2019-05-03T19:59:38.297Z,7.88
2019-05-03T20:01:38.945Z,7.88
2019-05-03T20:03:38.979Z,7.88
2019-05-03T20:05:38.301Z,7.75
2019-05-03T20:07:38.434Z,7.81
2019-05-03T20:09:38.299Z,7.81
2019-05-03T20:10:55.127Z,7.69
2019-05-03T20:11:38.429Z,7.75
2019-05-03T20:13:38.296Z,7.75
2019-05-03T20:15:38.439Z,7.75
2019-05-03T20:17:38.435Z,7.69
2019-05-03T20:19:38.301Z,7.81
2019-05-03T20:21:38.308Z,7.88
2019-05-03T20:23:38.441Z,7.88
2019-05-03T20:25:38.557Z,7.81
2019-05-03T20:25:55.041Z,7.81
2019-05-03T20:27:38.444Z,7.81
2019-05-03T20:29:38.175Z,7.88
2019-05-03T20:31:39.228Z,7.88
2019-05-03T20:33:38.306Z,7.81
2019-05-03T20:35:38.580Z,7.81
2019-05-03T20:37:38.955Z,7.81
2019-05-03T20:39:38.311Z,7.81
2019-05-03T20:40:57.184Z,7.88
2019-05-03T20:41:38.963Z,7.88
2019-05-03T20:43:38.328Z,7.88
2019-05-03T20:45:38.325Z,7.88
2019-05-03T20:47:38.586Z,7.81
2019-05-03T20:49:38.930Z,7.88
2019-05-03T20:51:38.942Z,7.88
2019-05-03T20:53:38.348Z,7.88
2019-05-03T20:55:38.332Z,7.88
2019-05-03T20:55:55.045Z,7.81
2019-05-03T20:57:38.331Z,7.88
2019-05-03T20:59:44.917Z,7.88
2019-05-03T21:01:38.333Z,7.81
2019-05-03T21:03:38.313Z,7.75
2019-05-03T21:05:38.339Z,7.75
2019-05-03T21:07:38.349Z,7.81
2019-05-03T21:09:38.938Z,7.81
2019-05-03T21:10:55.215Z,7.88
2019-05-03T21:11:38.339Z,7.88
2019-05-03T21:13:41.849Z,7.94
2019-05-03T21:15:38.344Z,7.81
2019-05-03T21:17:38.992Z,7.88
2019-05-03T21:19:38.343Z,7.88
2019-05-03T21:21:38.349Z,7.81
2019-05-03T21:23:38.357Z,7.81
2019-05-03T21:26:02.140Z,7.81
2019-05-03T21:26:06.380Z,7.88
2019-05-03T21:27:38.369Z,7.88
2019-05-03T21:29:38.364Z,7.88
2019-05-03T21:31:39.087Z,7.88
2019-05-03T21:33:38.226Z,7.81
2019-05-03T21:35:41.842Z,7.81
2019-05-03T21:37:38.218Z,7.75
2019-05-03T21:39:38.249Z,7.69
2019-05-03T21:40:55.151Z,7.75
2019-05-03T21:41:38.353Z,7.75
2019-05-03T21:43:38.235Z,7.75
2019-05-03T21:45:38.227Z,7.75
2019-05-03T21:47:38.071Z,7.75
2019-05-03T21:49:38.236Z,7.75
2019-05-03T21:51:38.374Z,7.69
2019-05-03T21:53:38.235Z,7.69
2019-05-03T21:55:38.251Z,7.69
2019-05-03T21:55:55.045Z,7.75
2019-05-03T21:57:38.983Z,7.69
2019-05-03T21:59:38.379Z,7.63
2019-05-03T22:01:38.254Z,7.75
2019-05-03T22:03:38.248Z,7.69
2019-05-03T22:05:38.247Z,7.75
2019-05-03T22:07:38.255Z,7.63
2019-05-03T22:09:38.245Z,7.56
2019-05-03T22:10:55.514Z,7.5
2019-05-03T22:11:38.249Z,7.5
2019-05-03T22:13:38.398Z,7.5
2019-05-03T22:15:38.256Z,7.5
2019-05-03T22:17:38.266Z,7.56
2019-05-03T22:19:38.270Z,7.63
2019-05-03T22:21:38.264Z,7.56
2019-05-03T22:23:38.402Z,7.56
2019-05-03T22:25:38.291Z,7.56
2019-05-03T22:25:56.908Z,7.56
2019-05-03T22:27:38.267Z,7.5
2019-05-03T22:29:38.274Z,7.44
2019-05-03T22:31:38.138Z,7.19
2019-05-03T22:33:38.283Z,6.88
2019-05-03T22:35:38.139Z,6.75
2019-05-03T22:37:38.288Z,6.5
2019-05-03T22:39:38.137Z,6.5
2019-05-03T22:40:55.332Z,6.44
2019-05-03T22:41:38.671Z,6.38
2019-05-03T22:43:38.142Z,6.44
2019-05-03T22:45:38.286Z,6.31
2019-05-03T22:47:38.141Z,6.38
2019-05-03T22:49:38.420Z,6.38
2019-05-03T22:51:38.137Z,6.38
2019-05-03T22:53:38.288Z,6.44
2019-05-03T22:55:38.281Z,6.38
2019-05-03T22:55:54.930Z,6.31
2019-05-03T22:57:38.416Z,6.25
2019-05-03T22:59:38.151Z,6.25
2019-05-03T23:01:38.145Z,6.19
2019-05-03T23:03:38.152Z,6.19
2019-05-03T23:05:38.145Z,6.25
2019-05-03T23:07:38.149Z,6.25
2019-05-03T23:09:38.152Z,6.19
2019-05-03T23:10:55.119Z,5.94
2019-05-03T23:11:38.153Z,5.75
2019-05-03T23:13:38.295Z,5.81
2019-05-03T23:15:38.156Z,5.69
2019-05-03T23:17:38.169Z,5.5
2019-05-03T23:19:38.305Z,5.56
2019-05-03T23:21:38.002Z,5.44
2019-05-03T23:23:38.043Z,5.31
2019-05-03T23:25:38.182Z,5.38
2019-05-03T23:25:55.023Z,5.38
2019-05-03T23:27:38.169Z,5.31